Date,TemperatureHighF,TemperatureAvgF,TemperatureLowF,DewpointHighF,DewpointAvgF,DewpointLowF,HumidityHigh,HumidityAvg,HumidityLow,PressureMaxIn,PressureMinIn,WindSpeedMaxMPH,WindSpeedAvgMPH,GustSpeedMaxMPH,PrecipitationSumIn
2013-9-1,99.1,80.9,70.5,68.5,58.2,31.5,91,55,10,29.78,29.65,8,2,10,0.08
2013-9-2,95.2,80.6,72.3,69.3,60.0,29.4,88,57,10,29.73,29.64,10,3,10,0.00
2013-9-3,90.3,79.2,71.6,68.0,52.6,24.4,85,46,10,29.85,29.64,17,4,17,0.00
2013-9-4,87.8,74.5,66.0,56.5,38.1,17.8,70,32,10,29.99,29.85,16,4,16,0.00
2013-9-5,93.9,76.6,61.9,62.3,41.3,19.5,87,40,10,30.01,29.89,14,3,14,0.00
2013-9-6,84.4,70.6,61.2,49.3,33.3,15.9,65,29,10,30.13,30.00,15,5,15,0.00
2013-9-7,81.7,72.2,57.7,56.7,40.2,25.8,84,40,14,30.04,29.96,11,3,11,0.00
2013-9-8,79.9,79.5,70.9,70.6,36.6,32.6,99,23,18,30.09,29.91,8,5,8,3.47
2013-9-9,85.1,75.1,68.2,62.6,51.2,39.3,75,45,25,30.19,30.00,13,4,13,0.00
2013-9-10,96.4,80.9,68.7,68.6,55.9,30.0,94,52,10,30.20,30.10,11,3,11,0.00
2013-9-11,95.0,83.6,72.7,61.1,48.8,26.2,66,34,10,30.18,30.04,14,4,14,0.00
2013-9-12,95.5,80.1,68.5,67.6,52.9,29.7,91,47,10,30.05,29.76,17,4,32,0.54
2013-9-13,83.3,72.6,63.3,69.2,43.5,15.8,99,48,10,29.93,29.72,17,5,20,0.01
2013-9-14,75.4,62.9,53.2,41.2,27.3,8.6,62,31,10,30.17,29.92,21,6,21,0.00
2013-9-15,84.4,66.1,48.9,46.7,31.5,13.6,78,38,10,30.27,30.11,11,2,11,0.00
2013-9-16,82.2,67.3,57.4,52.2,46.7,39.6,66,49,23,30.23,30.08,14,4,14,0.00
2013-9-17,73.2,61.1,50.2,47.9,32.5,7.5,75,42,10,30.41,30.22,17,5,17,0.00
2013-9-18,78.6,60.5,45.1,42.6,29.0,10.0,78,41,10,30.35,30.19,8,2,8,0.00
2013-9-19,82.8,66.3,51.1,55.5,36.0,16.6,82,43,10,30.22,30.09,9,2,9,0.00
2013-9-20,85.3,69.7,57.9,50.7,41.2,19.2,70,41,10,30.11,29.96,9,2,9,0.00
2013-9-21,77.0,67.7,60.3,64.5,53.6,41.4,93,63,29,29.98,29.70,20,4,20,0.58
2013-9-22,78.3,66.7,59.5,64.1,41.9,12.5,99,52,10,29.95,29.73,18,5,18,0.05
2013-9-23,73.8,59.8,50.5,40.4,28.1,7.5,68,37,10,30.11,29.94,17,5,17,0.00
2013-9-24,80.6,61.0,47.5,45.5,31.5,10.7,77,44,10,30.13,29.97,11,2,11,0.00
2013-9-25,81.9,64.2,49.8,57.1,35.8,13.8,89,45,10,29.99,29.88,13,2,13,0.00
2013-9-26,78.8,65.9,55.9,50.2,36.9,12.7,77,43,10,30.07,29.91,14,4,14,0.00
2013-9-27,75.9,61.9,52.5,53.2,43.2,19.4,88,56,14,30.23,30.07,14,3,14,0.00
2013-9-28,71.4,62.4,53.1,48.1,43.2,32.6,80,53,25,30.30,30.20,14,5,14,0.00
2013-9-29,77.4,65.5,52.7,52.6,40.4,15.5,90,47,11,30.21,30.06,16,6,16,0.00
2013-9-30,72.1,72.1,72.1,34.4,34.4,34.4,25,25,25,30.06,30.06,9,9,11,0.00